sensor_id;sensor_type;location;lat;lon;timestamp;temperature;humidity
8043;DHT22;4064;48.132;11.366;2023-05-28T00:00:42;12.20;81.50
8043;DHT22;4064;48.132;11.366;2023-05-28T00:03:10;12.20;82.60
8043;DHT22;4064;48.132;11.366;2023-05-28T00:05:36;12.20;82.90
8043;DHT22;4064;48.132;11.366;2023-05-28T00:08:03;12.20;82.30
8043;DHT22;4064;48.132;11.366;2023-05-28T00:10:29;12.20;82.10
8043;DHT22;4064;48.132;11.366;2023-05-28T00:12:55;12.20;82.30
8043;DHT22;4064;48.132;11.366;2023-05-28T00:15:21;12.10;82.80
8043;DHT22;4064;48.132;11.366;2023-05-28T00:17:48;12.10;82.80
8043;DHT22;4064;48.132;11.366;2023-05-28T00:20:18;12.00;83.60
8043;DHT22;4064;48.132;11.366;2023-05-28T00:22:45;12.00;84.10
8043;DHT22;4064;48.132;11.366;2023-05-28T00:25:11;12.00;84.00
8043;DHT22;4064;48.132;11.366;2023-05-28T00:27:37;11.90;83.80
8043;DHT22;4064;48.132;11.366;2023-05-28T00:30:03;11.90;85.10
8043;DHT22;4064;48.132;11.366;2023-05-28T00:32:29;11.90;84.40
8043;DHT22;4064;48.132;11.366;2023-05-28T00:34:55;11.80;85.40
8043;DHT22;4064;48.132;11.366;2023-05-28T00:37:21;11.80;85.60
8043;DHT22;4064;48.132;11.366;2023-05-28T00:39:47;11.80;86.40
8043;DHT22;4064;48.132;11.366;2023-05-28T00:42:13;11.80;86.70
8043;DHT22;4064;48.132;11.366;2023-05-28T00:44:40;11.80;87.10
8043;DHT22;4064;48.132;11.366;2023-05-28T00:47:07;11.80;86.90
8043;DHT22;4064;48.132;11.366;2023-05-28T00:49:32;11.80;86.90
8043;DHT22;4064;48.132;11.366;2023-05-28T00:51:59;11.80;87.60
8043;DHT22;4064;48.132;11.366;2023-05-28T00:54:26;11.70;87.40
8043;DHT22;4064;48.132;11.366;2023-05-28T00:56:55;11.70;87.30
8043;DHT22;4064;48.132;11.366;2023-05-28T00:59:25;11.70;88.30
8043;DHT22;4064;48.132;11.366;2023-05-28T01:01:51;11.70;88.10
8043;DHT22;4064;48.132;11.366;2023-05-28T01:04:17;11.70;88.30
8043;DHT22;4064;48.132;11.366;2023-05-28T01:06:44;11.60;87.90
8043;DHT22;4064;48.132;11.366;2023-05-28T01:09:11;11.50;88.90
8043;DHT22;4064;48.132;11.366;2023-05-28T01:11:39;11.50;88.80
8043;DHT22;4064;48.132;11.366;2023-05-28T01:14:07;11.50;89.20
8043;DHT22;4064;48.132;11.366;2023-05-28T01:16:33;11.50;89.20
8043;DHT22;4064;48.132;11.366;2023-05-28T01:19:03;11.50;89.60
8043;DHT22;4064;48.132;11.366;2023-05-28T01:21:37;11.40;89.00
8043;DHT22;4064;48.132;11.366;2023-05-28T01:24:04;11.30;89.20
8043;DHT22;4064;48.132;11.366;2023-05-28T01:26:31;11.30;90.20
8043;DHT22;4064;48.132;11.366;2023-05-28T01:28:58;11.30;90.40
8043;DHT22;4064;48.132;11.366;2023-05-28T01:31:24;11.30;90.40
8043;DHT22;4064;48.132;11.366;2023-05-28T01:33:50;11.20;90.70
8043;DHT22;4064;48.132;11.366;2023-05-28T01:36:28;11.20;90.60
8043;DHT22;4064;48.132;11.366;2023-05-28T01:38:57;11.20;91.10
8043;DHT22;4064;48.132;11.366;2023-05-28T01:41:27;11.10;90.80
8043;DHT22;4064;48.132;11.366;2023-05-28T01:43:53;11.10;91.10
8043;DHT22;4064;48.132;11.366;2023-05-28T01:46:21;11.00;91.00
8043;DHT22;4064;48.132;11.366;2023-05-28T01:48:49;11.00;91.20
8043;DHT22;4064;48.132;11.366;2023-05-28T01:51:23;10.90;91.50
8043;DHT22;4064;48.132;11.366;2023-05-28T01:53:51;10.90;91.50
8043;DHT22;4064;48.132;11.366;2023-05-28T01:56:17;10.90;91.70
8043;DHT22;4064;48.132;11.366;2023-05-28T01:58:43;10.80;91.70
8043;DHT22;4064;48.132;11.366;2023-05-28T02:01:31;10.90;92.00
8043;DHT22;4064;48.132;11.366;2023-05-28T02:03:59;10.80;91.80
8043;DHT22;4064;48.132;11.366;2023-05-28T02:06:29;10.70;91.70
8043;DHT22;4064;48.132;11.366;2023-05-28T02:08:55;10.70;92.20
8043;DHT22;4064;48.132;11.366;2023-05-28T02:11:21;10.50;92.10
8043;DHT22;4064;48.132;11.366;2023-05-28T02:13:48;10.50;92.70
8043;DHT22;4064;48.132;11.366;2023-05-28T02:16:15;10.40;93.00
8043;DHT22;4064;48.132;11.366;2023-05-28T02:18:43;10.50;93.20
8043;DHT22;4064;48.132;11.366;2023-05-28T02:21:11;10.50;92.80
8043;DHT22;4064;48.132;11.366;2023-05-28T02:23:47;10.40;93.10
8043;DHT22;4064;48.132;11.366;2023-05-28T02:26:13;10.30;93.20
8043;DHT22;4064;48.132;11.366;2023-05-28T02:28:40;10.20;93.30
8043;DHT22;4064;48.132;11.366;2023-05-28T02:31:09;10.20;94.20
8043;DHT22;4064;48.132;11.366;2023-05-28T02:33:39;10.20;94.10
8043;DHT22;4064;48.132;11.366;2023-05-28T02:36:06;10.20;94.50
8043;DHT22;4064;48.132;11.366;2023-05-28T02:38:32;10.30;94.40
8043;DHT22;4064;48.132;11.366;2023-05-28T02:40:59;10.30;94.50
8043;DHT22;4064;48.132;11.366;2023-05-28T02:43:25;10.30;94.60
8043;DHT22;4064;48.132;11.366;2023-05-28T02:45:51;10.30;94.50
8043;DHT22;4064;48.132;11.366;2023-05-28T02:48:17;10.30;94.40
8043;DHT22;4064;48.132;11.366;2023-05-28T02:50:43;10.30;94.90
8043;DHT22;4064;48.132;11.366;2023-05-28T02:53:09;10.30;94.70
8043;DHT22;4064;48.132;11.366;2023-05-28T02:55:35;10.30;94.80
8043;DHT22;4064;48.132;11.366;2023-05-28T02:58:00;10.30;94.70
8043;DHT22;4064;48.132;11.366;2023-05-28T03:00:27;10.30;94.80
8043;DHT22;4064;48.132;11.366;2023-05-28T03:02:52;10.30;94.70
8043;DHT22;4064;48.132;11.366;2023-05-28T03:05:19;10.30;94.70
8043;DHT22;4064;48.132;11.366;2023-05-28T03:07:45;10.20;94.80
8043;DHT22;4064;48.132;11.366;2023-05-28T03:10:11;10.20;94.90
8043;DHT22;4064;48.132;11.366;2023-05-28T03:12:37;10.10;94.80
8043;DHT22;4064;48.132;11.366;2023-05-28T03:15:03;10.10;95.00
8043;DHT22;4064;48.132;11.366;2023-05-28T03:17:29;10.10;95.00
8043;DHT22;4064;48.132;11.366;2023-05-28T03:19:55;10.10;95.20
8043;DHT22;4064;48.132;11.366;2023-05-28T03:22:21;10.10;95.20
8043;DHT22;4064;48.132;11.366;2023-05-28T03:24:47;10.10;95.50
8043;DHT22;4064;48.132;11.366;2023-05-28T03:27:13;10.10;95.30
8043;DHT22;4064;48.132;11.366;2023-05-28T03:29:39;10.10;95.60
8043;DHT22;4064;48.132;11.366;2023-05-28T03:32:05;10.10;95.80
8043;DHT22;4064;48.132;11.366;2023-05-28T03:34:31;10.00;95.80
8043;DHT22;4064;48.132;11.366;2023-05-28T03:36:59;10.00;95.80
8043;DHT22;4064;48.132;11.366;2023-05-28T03:39:25;10.10;96.10
8043;DHT22;4064;48.132;11.366;2023-05-28T03:41:51;10.10;95.80
8043;DHT22;4064;48.132;11.366;2023-05-28T03:44:16;10.10;96.30
8043;DHT22;4064;48.132;11.366;2023-05-28T03:46:43;10.10;96.30
8043;DHT22;4064;48.132;11.366;2023-05-28T03:49:09;10.00;95.80
8043;DHT22;4064;48.132;11.366;2023-05-28T03:51:34;10.00;96.60
8043;DHT22;4064;48.132;11.366;2023-05-28T03:54:02;10.10;96.60
8043;DHT22;4064;48.132;11.366;2023-05-28T03:56:28;10.10;96.30
8043;DHT22;4064;48.132;11.366;2023-05-28T03:58:55;10.00;96.70
8043;DHT22;4064;48.132;11.366;2023-05-28T04:01:21;10.10;96.60
8043;DHT22;4064;48.132;11.366;2023-05-28T04:03:47;10.10;96.60
8043;DHT22;4064;48.132;11.366;2023-05-28T04:06:12;10.20;96.70
8043;DHT22;4064;48.132;11.366;2023-05-28T04:08:38;10.20;96.70
8043;DHT22;4064;48.132;11.366;2023-05-28T04:11:04;10.20;96.50
8043;DHT22;4064;48.132;11.366;2023-05-28T04:13:30;10.30;96.80
8043;DHT22;4064;48.132;11.366;2023-05-28T04:15:56;10.30;96.70
8043;DHT22;4064;48.132;11.366;2023-05-28T04:18:22;10.40;96.50
8043;DHT22;4064;48.132;11.366;2023-05-28T04:20:47;10.40;96.80
8043;DHT22;4064;48.132;11.366;2023-05-28T04:23:13;10.40;96.70
8043;DHT22;4064;48.132;11.366;2023-05-28T04:25:41;10.40;96.60
8043;DHT22;4064;48.132;11.366;2023-05-28T04:28:08;10.50;96.70
8043;DHT22;4064;48.132;11.366;2023-05-28T04:30:33;10.50;96.60
8043;DHT22;4064;48.132;11.366;2023-05-28T04:32:59;10.50;96.80
8043;DHT22;4064;48.132;11.366;2023-05-28T04:35:25;10.50;96.60
8043;DHT22;4064;48.132;11.366;2023-05-28T04:37:51;10.60;96.50
8043;DHT22;4064;48.132;11.366;2023-05-28T04:40:17;10.60;96.80
8043;DHT22;4064;48.132;11.366;2023-05-28T04:42:43;10.60;96.30
8043;DHT22;4064;48.132;11.366;2023-05-28T04:45:09;10.50;96.20
8043;DHT22;4064;48.132;11.366;2023-05-28T04:47:38;10.60;96.80
8043;DHT22;4064;48.132;11.366;2023-05-28T04:50:06;10.70;96.60
8043;DHT22;4064;48.132;11.366;2023-05-28T04:52:33;10.80;97.10
8043;DHT22;4064;48.132;11.366;2023-05-28T04:55:04;11.00;97.00
8043;DHT22;4064;48.132;11.366;2023-05-28T04:57:31;11.10;96.80
8043;DHT22;4064;48.132;11.366;2023-05-28T05:00:01;11.10;96.40
8043;DHT22;4064;48.132;11.366;2023-05-28T05:02:27;11.20;96.30
8043;DHT22;4064;48.132;11.366;2023-05-28T05:04:54;11.30;96.20
8043;DHT22;4064;48.132;11.366;2023-05-28T05:07:21;11.30;96.30
8043;DHT22;4064;48.132;11.366;2023-05-28T05:09:47;11.40;96.00
8043;DHT22;4064;48.132;11.366;2023-05-28T05:12:16;11.50;96.10
8043;DHT22;4064;48.132;11.366;2023-05-28T05:14:42;11.70;95.90
8043;DHT22;4064;48.132;11.366;2023-05-28T05:17:08;11.80;96.00
8043;DHT22;4064;48.132;11.366;2023-05-28T05:19:34;12.00;96.40
8043;DHT22;4064;48.132;11.366;2023-05-28T05:22:01;12.10;95.90
8043;DHT22;4064;48.132;11.366;2023-05-28T05:24:28;12.40;95.60
8043;DHT22;4064;48.132;11.366;2023-05-28T05:26:54;12.60;95.20
8043;DHT22;4064;48.132;11.366;2023-05-28T05:29:20;12.80;94.90
8043;DHT22;4064;48.132;11.366;2023-05-28T05:31:45;13.00;94.60
8043;DHT22;4064;48.132;11.366;2023-05-28T05:34:11;13.20;94.00
8043;DHT22;4064;48.132;11.366;2023-05-28T05:36:37;13.30;94.00
8043;DHT22;4064;48.132;11.366;2023-05-28T05:39:03;13.40;93.70
8043;DHT22;4064;48.132;11.366;2023-05-28T05:41:28;13.60;93.40
8043;DHT22;4064;48.132;11.366;2023-05-28T05:43:54;13.80;92.30
8043;DHT22;4064;48.132;11.366;2023-05-28T05:46:20;13.90;92.60
8043;DHT22;4064;48.132;11.366;2023-05-28T05:48:46;14.00;92.20
8043;DHT22;4064;48.132;11.366;2023-05-28T05:51:11;14.10;91.90
8043;DHT22;4064;48.132;11.366;2023-05-28T05:53:44;14.30;91.70
8043;DHT22;4064;48.132;11.366;2023-05-28T05:56:10;14.40;91.30
8043;DHT22;4064;48.132;11.366;2023-05-28T05:58:37;14.50;91.20
8043;DHT22;4064;48.132;11.366;2023-05-28T06:01:03;14.50;90.80
8043;DHT22;4064;48.132;11.366;2023-05-28T06:03:30;14.60;90.60
8043;DHT22;4064;48.132;11.366;2023-05-28T06:05:56;14.70;91.10
8043;DHT22;4064;48.132;11.366;2023-05-28T06:08:22;14.90;91.00
8043;DHT22;4064;48.132;11.366;2023-05-28T06:10:48;15.00;90.50
8043;DHT22;4064;48.132;11.366;2023-05-28T06:13:14;15.10;90.60
8043;DHT22;4064;48.132;11.366;2023-05-28T06:15:40;15.20;90.00
8043;DHT22;4064;48.132;11.366;2023-05-28T06:18:06;15.40;89.40
8043;DHT22;4064;48.132;11.366;2023-05-28T06:20:33;15.50;88.60
8043;DHT22;4064;48.132;11.366;2023-05-28T06:22:58;15.70;87.40
8043;DHT22;4064;48.132;11.366;2023-05-28T06:25:25;15.80;86.70
8043;DHT22;4064;48.132;11.366;2023-05-28T06:27:50;15.90;84.70
8043;DHT22;4064;48.132;11.366;2023-05-28T06:30:16;15.90;85.00
8043;DHT22;4064;48.132;11.366;2023-05-28T06:32:43;16.10;84.80
8043;DHT22;4064;48.132;11.366;2023-05-28T06:35:09;16.20;83.60
8043;DHT22;4064;48.132;11.366;2023-05-28T06:37:35;16.40;83.30
8043;DHT22;4064;48.132;11.366;2023-05-28T06:40:01;16.50;83.50
8043;DHT22;4064;48.132;11.366;2023-05-28T06:42:26;16.70;84.80
8043;DHT22;4064;48.132;11.366;2023-05-28T06:44:52;16.90;83.20
8043;DHT22;4064;48.132;11.366;2023-05-28T06:47:18;17.10;81.20
8043;DHT22;4064;48.132;11.366;2023-05-28T06:49:44;17.20;81.40
8043;DHT22;4064;48.132;11.366;2023-05-28T06:52:10;17.40;80.00
8043;DHT22;4064;48.132;11.366;2023-05-28T06:54:36;17.40;79.80
8043;DHT22;4064;48.132;11.366;2023-05-28T06:57:02;17.50;79.20
8043;DHT22;4064;48.132;11.366;2023-05-28T06:59:28;17.70;78.90
8043;DHT22;4064;48.132;11.366;2023-05-28T07:01:54;17.90;79.60
8043;DHT22;4064;48.132;11.366;2023-05-28T07:04:20;18.10;78.90
8043;DHT22;4064;48.132;11.366;2023-05-28T07:06:46;18.30;75.90
8043;DHT22;4064;48.132;11.366;2023-05-28T07:09:12;18.30;76.70
8043;DHT22;4064;48.132;11.366;2023-05-28T07:11:37;18.50;76.40
8043;DHT22;4064;48.132;11.366;2023-05-28T07:14:03;18.90;76.40
8043;DHT22;4064;48.132;11.366;2023-05-28T07:16:29;19.30;76.40
8043;DHT22;4064;48.132;11.366;2023-05-28T07:18:55;19.90;70.90
8043;DHT22;4064;48.132;11.366;2023-05-28T07:21:21;20.30;70.30
8043;DHT22;4064;48.132;11.366;2023-05-28T07:23:46;20.80;70.90
8043;DHT22;4064;48.132;11.366;2023-05-28T07:26:12;21.10;69.10
8043;DHT22;4064;48.132;11.366;2023-05-28T07:28:38;21.30;68.80
8043;DHT22;4064;48.132;11.366;2023-05-28T07:31:05;21.40;68.10
8043;DHT22;4064;48.132;11.366;2023-05-28T07:33:31;21.70;65.50
8043;DHT22;4064;48.132;11.366;2023-05-28T07:35:57;21.90;63.80
8043;DHT22;4064;48.132;11.366;2023-05-28T07:38:23;22.10;65.50
8043;DHT22;4064;48.132;11.366;2023-05-28T07:40:50;22.30;64.50
8043;DHT22;4064;48.132;11.366;2023-05-28T07:43:16;22.60;63.00
8043;DHT22;4064;48.132;11.366;2023-05-28T07:45:42;22.90;63.70
8043;DHT22;4064;48.132;11.366;2023-05-28T07:48:08;23.20;62.10
8043;DHT22;4064;48.132;11.366;2023-05-28T07:50:34;23.40;61.10
8043;DHT22;4064;48.132;11.366;2023-05-28T07:53:00;23.60;61.10
8043;DHT22;4064;48.132;11.366;2023-05-28T07:55:27;23.90;59.90
8043;DHT22;4064;48.132;11.366;2023-05-28T07:57:53;24.20;58.20
8043;DHT22;4064;48.132;11.366;2023-05-28T08:00:19;24.10;59.20
8043;DHT22;4064;48.132;11.366;2023-05-28T08:02:45;24.30;59.10
8043;DHT22;4064;48.132;11.366;2023-05-28T08:05:11;24.40;56.80
8043;DHT22;4064;48.132;11.366;2023-05-28T08:07:37;24.40;55.60
8043;DHT22;4064;48.132;11.366;2023-05-28T08:10:04;24.60;54.90
8043;DHT22;4064;48.132;11.366;2023-05-28T08:12:30;24.60;54.20
8043;DHT22;4064;48.132;11.366;2023-05-28T08:14:56;24.60;54.40
8043;DHT22;4064;48.132;11.366;2023-05-28T08:17:23;24.80;55.40
8043;DHT22;4064;48.132;11.366;2023-05-28T08:19:49;24.80;53.90
8043;DHT22;4064;48.132;11.366;2023-05-28T08:22:15;24.80;54.80
8043;DHT22;4064;48.132;11.366;2023-05-28T08:24:41;24.70;52.00
8043;DHT22;4064;48.132;11.366;2023-05-28T08:27:07;24.70;50.10
8043;DHT22;4064;48.132;11.366;2023-05-28T08:29:33;24.70;49.30
8043;DHT22;4064;48.132;11.366;2023-05-28T08:31:59;24.80;49.20
8043;DHT22;4064;48.132;11.366;2023-05-28T08:34:25;24.90;48.20
8043;DHT22;4064;48.132;11.366;2023-05-28T08:36:52;25.10;48.20
8043;DHT22;4064;48.132;11.366;2023-05-28T08:39:18;25.00;48.90
8043;DHT22;4064;48.132;11.366;2023-05-28T08:41:44;25.20;49.00
8043;DHT22;4064;48.132;11.366;2023-05-28T08:44:11;25.40;47.80
8043;DHT22;4064;48.132;11.366;2023-05-28T08:46:37;25.50;48.00
8043;DHT22;4064;48.132;11.366;2023-05-28T08:49:03;25.70;47.50
8043;DHT22;4064;48.132;11.366;2023-05-28T08:51:33;26.00;47.20
8043;DHT22;4064;48.132;11.366;2023-05-28T08:54:02;26.10;47.80
8043;DHT22;4064;48.132;11.366;2023-05-28T08:56:29;25.80;47.40
8043;DHT22;4064;48.132;11.366;2023-05-28T08:58:57;26.00;46.40
8043;DHT22;4064;48.132;11.366;2023-05-28T09:01:23;26.20;46.00
8043;DHT22;4064;48.132;11.366;2023-05-28T09:03:49;26.50;47.00
8043;DHT22;4064;48.132;11.366;2023-05-28T09:06:16;26.60;46.50
8043;DHT22;4064;48.132;11.366;2023-05-28T09:08:44;26.80;47.10
8043;DHT22;4064;48.132;11.366;2023-05-28T09:11:14;26.40;45.00
8043;DHT22;4064;48.132;11.366;2023-05-28T09:13:45;26.20;44.90
8043;DHT22;4064;48.132;11.366;2023-05-28T09:16:19;26.30;44.30
8043;DHT22;4064;48.132;11.366;2023-05-28T09:18:52;26.40;44.60
8043;DHT22;4064;48.132;11.366;2023-05-28T09:21:27;26.50;44.80
8043;DHT22;4064;48.132;11.366;2023-05-28T09:23:53;26.50;43.80
8043;DHT22;4064;48.132;11.366;2023-05-28T09:26:20;26.50;43.30
8043;DHT22;4064;48.132;11.366;2023-05-28T09:28:48;26.50;43.20
8043;DHT22;4064;48.132;11.366;2023-05-28T09:31:15;26.30;43.80
8043;DHT22;4064;48.132;11.366;2023-05-28T09:33:47;26.40;43.00
8043;DHT22;4064;48.132;11.366;2023-05-28T09:36:16;26.40;43.50
8043;DHT22;4064;48.132;11.366;2023-05-28T09:38:43;26.10;43.50
8043;DHT22;4064;48.132;11.366;2023-05-28T09:41:41;26.20;43.10
8043;DHT22;4064;48.132;11.366;2023-05-28T09:44:10;26.20;42.60
8043;DHT22;4064;48.132;11.366;2023-05-28T09:46:36;26.00;42.30
8043;DHT22;4064;48.132;11.366;2023-05-28T09:49:03;26.00;43.50
8043;DHT22;4064;48.132;11.366;2023-05-28T09:51:31;25.90;43.60
8043;DHT22;4064;48.132;11.366;2023-05-28T09:54:00;26.10;43.20
8043;DHT22;4064;48.132;11.366;2023-05-28T09:56:32;26.00;42.70
8043;DHT22;4064;48.132;11.366;2023-05-28T09:59:00;26.00;43.90
8043;DHT22;4064;48.132;11.366;2023-05-28T10:01:45;26.20;44.70
8043;DHT22;4064;48.132;11.366;2023-05-28T10:04:14;26.40;43.80
8043;DHT22;4064;48.132;11.366;2023-05-28T10:06:44;26.20;43.80
8043;DHT22;4064;48.132;11.366;2023-05-28T10:09:15;26.30;44.80
8043;DHT22;4064;48.132;11.366;2023-05-28T10:11:54;26.40;44.40
8043;DHT22;4064;48.132;11.366;2023-05-28T10:14:23;26.50;43.30
8043;DHT22;4064;48.132;11.366;2023-05-28T10:16:49;26.30;42.60
8043;DHT22;4064;48.132;11.366;2023-05-28T10:19:17;26.20;43.50
8043;DHT22;4064;48.132;11.366;2023-05-28T10:21:43;26.00;43.50
8043;DHT22;4064;48.132;11.366;2023-05-28T10:24:12;25.90;44.10
8043;DHT22;4064;48.132;11.366;2023-05-28T10:26:38;26.10;43.60
8043;DHT22;4064;48.132;11.366;2023-05-28T10:29:07;26.00;42.70
8043;DHT22;4064;48.132;11.366;2023-05-28T10:31:33;25.90;41.50
8043;DHT22;4064;48.132;11.366;2023-05-28T10:34:00;25.80;42.50
8043;DHT22;4064;48.132;11.366;2023-05-28T10:36:25;26.00;42.50
8043;DHT22;4064;48.132;11.366;2023-05-28T10:41:19;26.00;42.60
8043;DHT22;4064;48.132;11.366;2023-05-28T10:43:46;26.30;42.50
8043;DHT22;4064;48.132;11.366;2023-05-28T10:46:19;26.20;41.30
8043;DHT22;4064;48.132;11.366;2023-05-28T10:52:05;26.30;40.70
8043;DHT22;4064;48.132;11.366;2023-05-28T10:57:18;26.10;42.20
8043;DHT22;4064;48.132;11.366;2023-05-28T11:00:11;26.30;43.00
8043;DHT22;4064;48.132;11.366;2023-05-28T11:02:59;26.30;41.70
8043;DHT22;4064;48.132;11.366;2023-05-28T11:05:45;26.20;43.60
8043;DHT22;4064;48.132;11.366;2023-05-28T11:08:37;26.20;42.30
8043;DHT22;4064;48.132;11.366;2023-05-28T11:11:19;26.30;42.80
8043;DHT22;4064;48.132;11.366;2023-05-28T11:13:45;26.50;42.80
8043;DHT22;4064;48.132;11.366;2023-05-28T11:16:51;26.60;43.20
8043;DHT22;4064;48.132;11.366;2023-05-28T11:19:45;26.50;42.60
8043;DHT22;4064;48.132;11.366;2023-05-28T11:22:34;26.60;44.60
8043;DHT22;4064;48.132;11.366;2023-05-28T11:25:20;26.40;42.30
8043;DHT22;4064;48.132;11.366;2023-05-28T11:28:06;26.50;43.80
8043;DHT22;4064;48.132;11.366;2023-05-28T11:30:32;26.60;42.30
8043;DHT22;4064;48.132;11.366;2023-05-28T11:33:18;26.70;42.10
8043;DHT22;4064;48.132;11.366;2023-05-28T11:35:43;26.80;41.50
8043;DHT22;4064;48.132;11.366;2023-05-28T11:38:09;26.80;42.10
8043;DHT22;4064;48.132;11.366;2023-05-28T11:40:35;26.80;42.40
8043;DHT22;4064;48.132;11.366;2023-05-28T11:43:01;27.00;41.90
8043;DHT22;4064;48.132;11.366;2023-05-28T11:45:27;26.90;40.30
8043;DHT22;4064;48.132;11.366;2023-05-28T11:47:53;26.80;40.60
8043;DHT22;4064;48.132;11.366;2023-05-28T11:50:20;26.70;41.40
8043;DHT22;4064;48.132;11.366;2023-05-28T11:52:47;26.70;41.30
8043;DHT22;4064;48.132;11.366;2023-05-28T11:55:15;26.70;41.20
8043;DHT22;4064;48.132;11.366;2023-05-28T11:57:52;26.80;42.40
8043;DHT22;4064;48.132;11.366;2023-05-28T12:00:30;26.90;40.60
8043;DHT22;4064;48.132;11.366;2023-05-28T12:03:15;26.70;40.10
8043;DHT22;4064;48.132;11.366;2023-05-28T12:05:41;26.60;39.40
8043;DHT22;4064;48.132;11.366;2023-05-28T12:08:27;26.50;40.10
8043;DHT22;4064;48.132;11.366;2023-05-28T12:10:59;26.60;41.20
8043;DHT22;4064;48.132;11.366;2023-05-28T12:13:33;26.40;40.60
8043;DHT22;4064;48.132;11.366;2023-05-28T12:16:16;26.40;40.70
8043;DHT22;4064;48.132;11.366;2023-05-28T12:18:42;26.60;41.40
8043;DHT22;4064;48.132;11.366;2023-05-28T12:21:13;26.70;42.50
8043;DHT22;4064;48.132;11.366;2023-05-28T12:24:18;26.50;41.90
8043;DHT22;4064;48.132;11.366;2023-05-28T12:26:43;26.50;40.80
8043;DHT22;4064;48.132;11.366;2023-05-28T12:29:09;26.60;41.90
8043;DHT22;4064;48.132;11.366;2023-05-28T12:31:59;26.70;42.30
8043;DHT22;4064;48.132;11.366;2023-05-28T12:34:44;26.90;42.20
8043;DHT22;4064;48.132;11.366;2023-05-28T12:37:10;27.20;41.00
8043;DHT22;4064;48.132;11.366;2023-05-28T12:39:37;27.20;41.90
8043;DHT22;4064;48.132;11.366;2023-05-28T12:42:03;27.20;41.00
8043;DHT22;4064;48.132;11.366;2023-05-28T12:44:29;27.20;40.30
8043;DHT22;4064;48.132;11.366;2023-05-28T12:46:55;27.10;40.70
8043;DHT22;4064;48.132;11.366;2023-05-28T12:49:21;27.00;40.10
8043;DHT22;4064;48.132;11.366;2023-05-28T12:51:46;27.10;40.10
8043;DHT22;4064;48.132;11.366;2023-05-28T12:54:12;27.00;40.30
8043;DHT22;4064;48.132;11.366;2023-05-28T12:56:38;26.90;39.40
8043;DHT22;4064;48.132;11.366;2023-05-28T12:59:04;26.80;39.60
8043;DHT22;4064;48.132;11.366;2023-05-28T13:01:30;26.90;41.40
8043;DHT22;4064;48.132;11.366;2023-05-28T13:03:55;26.90;40.20
8043;DHT22;4064;48.132;11.366;2023-05-28T13:06:21;26.90;40.70
8043;DHT22;4064;48.132;11.366;2023-05-28T13:08:48;27.10;41.20
8043;DHT22;4064;48.132;11.366;2023-05-28T13:11:14;27.00;40.20
8043;DHT22;4064;48.132;11.366;2023-05-28T13:13:40;26.80;39.60
8043;DHT22;4064;48.132;11.366;2023-05-28T13:16:06;26.90;39.40
8043;DHT22;4064;48.132;11.366;2023-05-28T13:18:31;26.90;41.00
8043;DHT22;4064;48.132;11.366;2023-05-28T13:20:57;26.80;40.40
8043;DHT22;4064;48.132;11.366;2023-05-28T13:23:23;26.60;38.80
8043;DHT22;4064;48.132;11.366;2023-05-28T13:25:49;26.40;39.60
8043;DHT22;4064;48.132;11.366;2023-05-28T13:28:15;26.40;40.00
8043;DHT22;4064;48.132;11.366;2023-05-28T13:30:42;26.50;40.70
8043;DHT22;4064;48.132;11.366;2023-05-28T13:33:08;26.30;41.10
8043;DHT22;4064;48.132;11.366;2023-05-28T13:35:35;26.10;40.10
8043;DHT22;4064;48.132;11.366;2023-05-28T13:38:01;26.10;40.20
8043;DHT22;4064;48.132;11.366;2023-05-28T13:40:29;26.20;39.10
8043;DHT22;4064;48.132;11.366;2023-05-28T13:42:55;26.10;40.80
8043;DHT22;4064;48.132;11.366;2023-05-28T13:45:21;26.30;39.20
8043;DHT22;4064;48.132;11.366;2023-05-28T13:47:47;26.30;41.80
8043;DHT22;4064;48.132;11.366;2023-05-28T13:50:13;26.10;40.70
8043;DHT22;4064;48.132;11.366;2023-05-28T13:52:40;26.30;41.40
8043;DHT22;4064;48.132;11.366;2023-05-28T13:55:08;26.20;39.20
8043;DHT22;4064;48.132;11.366;2023-05-28T13:57:34;26.00;39.70
8043;DHT22;4064;48.132;11.366;2023-05-28T14:00:00;25.90;39.40
8043;DHT22;4064;48.132;11.366;2023-05-28T14:02:32;25.80;39.40
8043;DHT22;4064;48.132;11.366;2023-05-28T14:04:58;25.70;39.80
8043;DHT22;4064;48.132;11.366;2023-05-28T14:07:24;25.60;40.00
8043;DHT22;4064;48.132;11.366;2023-05-28T14:09:50;25.70;40.40
8043;DHT22;4064;48.132;11.366;2023-05-28T14:12:16;25.70;39.50
8043;DHT22;4064;48.132;11.366;2023-05-28T14:14:42;25.60;40.00
8043;DHT22;4064;48.132;11.366;2023-05-28T14:17:08;25.50;39.60
8043;DHT22;4064;48.132;11.366;2023-05-28T14:19:34;25.40;40.40
8043;DHT22;4064;48.132;11.366;2023-05-28T14:22:00;25.30;39.10
8043;DHT22;4064;48.132;11.366;2023-05-28T14:24:26;25.20;39.80
8043;DHT22;4064;48.132;11.366;2023-05-28T14:26:51;25.10;39.00
8043;DHT22;4064;48.132;11.366;2023-05-28T14:29:17;24.90;38.40
8043;DHT22;4064;48.132;11.366;2023-05-28T14:31:43;24.90;38.70
8043;DHT22;4064;48.132;11.366;2023-05-28T14:34:09;25.00;38.90
8043;DHT22;4064;48.132;11.366;2023-05-28T14:36:35;24.80;38.00
8043;DHT22;4064;48.132;11.366;2023-05-28T14:39:01;24.70;38.80
8043;DHT22;4064;48.132;11.366;2023-05-28T14:41:27;24.60;38.40
8043;DHT22;4064;48.132;11.366;2023-05-28T14:43:53;24.40;38.30
8043;DHT22;4064;48.132;11.366;2023-05-28T14:46:18;24.40;38.30
8043;DHT22;4064;48.132;11.366;2023-05-28T14:48:44;24.40;38.90
8043;DHT22;4064;48.132;11.366;2023-05-28T14:51:10;24.50;40.10
8043;DHT22;4064;48.132;11.366;2023-05-28T14:53:37;24.50;39.20
8043;DHT22;4064;48.132;11.366;2023-05-28T14:56:03;24.40;39.10
8043;DHT22;4064;48.132;11.366;2023-05-28T14:58:29;24.30;39.40
8043;DHT22;4064;48.132;11.366;2023-05-28T15:00:56;24.20;39.00
8043;DHT22;4064;48.132;11.366;2023-05-28T15:03:22;24.20;39.70
8043;DHT22;4064;48.132;11.366;2023-05-28T15:05:48;24.00;38.10
8043;DHT22;4064;48.132;11.366;2023-05-28T15:08:14;23.80;37.00
8043;DHT22;4064;48.132;11.366;2023-05-28T15:10:41;23.70;37.40
8043;DHT22;4064;48.132;11.366;2023-05-28T15:13:07;23.60;37.50
8043;DHT22;4064;48.132;11.366;2023-05-28T15:15:33;23.50;38.40
8043;DHT22;4064;48.132;11.366;2023-05-28T15:17:59;23.50;38.00
8043;DHT22;4064;48.132;11.366;2023-05-28T15:20:24;23.40;38.20
8043;DHT22;4064;48.132;11.366;2023-05-28T15:22:50;23.30;38.10
8043;DHT22;4064;48.132;11.366;2023-05-28T15:25:16;23.30;37.90
8043;DHT22;4064;48.132;11.366;2023-05-28T15:27:43;23.20;38.70
8043;DHT22;4064;48.132;11.366;2023-05-28T15:30:09;23.10;38.80
8043;DHT22;4064;48.132;11.366;2023-05-28T15:32:37;23.10;38.00
8043;DHT22;4064;48.132;11.366;2023-05-28T15:35:03;23.00;37.80
8043;DHT22;4064;48.132;11.366;2023-05-28T15:37:29;23.00;39.40
8043;DHT22;4064;48.132;11.366;2023-05-28T15:39:56;23.00;39.30
8043;DHT22;4064;48.132;11.366;2023-05-28T15:42:24;23.00;39.10
8043;DHT22;4064;48.132;11.366;2023-05-28T15:44:50;23.00;38.70
8043;DHT22;4064;48.132;11.366;2023-05-28T15:47:16;22.80;37.50
8043;DHT22;4064;48.132;11.366;2023-05-28T15:49:42;22.80;38.40
8043;DHT22;4064;48.132;11.366;2023-05-28T15:52:07;22.80;37.90
8043;DHT22;4064;48.132;11.366;2023-05-28T15:54:33;22.70;37.30
8043;DHT22;4064;48.132;11.366;2023-05-28T15:57:00;22.70;37.10